Time;durP1;ratioP1;P1;durP2;ratioP2;P2;SDS_P1;SDS_P2;PMS_P1;PMS_P2;Temp;Humidity;BMP_temperature;BMP_pressure;BME280_temperature;BME280_humidity;BME280_pressure;Samples;Min_cycle;Max_cycle;Signal;HPM_P1;HPM_P2
2021/07/06 00:02:03;;;;;;;3.77;3.47;;;18.00;99.90;;;;;;5039200;28;20735;-60
2021/07/06 00:04:30;;;;;;;3.70;3.50;;;18.10;99.90;;;;;;5020237;28;20514;-60
2021/07/06 00:06:57;;;;;;;3.30;3.00;;;18.10;99.90;;;;;;5035705;28;20494;-60
2021/07/06 00:09:24;;;;;;;3.50;3.30;;;18.10;99.90;;;;;;5022647;28;20468;-60
2021/07/06 00:11:51;;;;;;;3.90;3.50;;;18.10;99.90;;;;;;5020197;28;20476;-60
2021/07/06 00:14:18;;;;;;;4.10;2.93;;;18.00;99.90;;;;;;5019394;28;20799;-61
2021/07/06 00:16:45;;;;;;;3.80;3.37;;;18.10;99.90;;;;;;5019635;28;20476;-61
2021/07/06 00:19:14;;;;;;;2.83;2.63;;;18.10;99.90;;;;;;5019731;28;20937;-60
2021/07/06 00:21:46;;;;;;;3.13;2.93;;;18.10;99.90;;;;;;5019964;28;20472;-60
2021/07/06 00:24:13;;;;;;;3.20;2.90;;;18.10;99.90;;;;;;5020964;28;20496;-60
2021/07/06 00:26:40;;;;;;;3.53;3.20;;;18.10;99.90;;;;;;5038705;28;20899;-60
2021/07/06 00:29:07;;;;;;;3.40;3.20;;;18.10;99.90;;;;;;5037384;28;20471;-60
2021/07/06 00:31:34;;;;;;;2.93;2.63;;;18.20;99.90;;;;;;5038243;28;20467;-61
2021/07/06 00:34:04;;;;;;;3.40;3.10;;;18.20;99.90;;;;;;5038887;28;20438;-60
2021/07/06 00:36:32;;;;;;;3.50;2.67;;;18.20;99.90;;;;;;5038374;28;20525;-60
2021/07/06 00:39:03;;;;;;;3.27;2.93;;;18.20;99.90;;;;;;5035833;28;20494;-60
2021/07/06 00:41:33;;;;;;;7.13;2.73;;;18.20;99.90;;;;;;5019830;28;20479;-60
2021/07/06 00:44:01;;;;;;;4.27;3.17;;;18.20;99.90;;;;;;5018857;28;20494;-59
2021/07/06 00:46:28;;;;;;;3.13;2.53;;;18.20;99.90;;;;;;5019200;28;20472;-60
2021/07/06 00:48:55;;;;;;;2.43;2.23;;;18.20;99.90;;;;;;5019043;28;20529;-60
2021/07/06 00:51:22;;;;;;;3.30;2.77;;;18.20;99.90;;;;;;5019597;28;20539;-60
2021/07/06 00:53:53;;;;;;;2.67;2.47;;;18.30;99.90;;;;;;5019642;28;20877;-60
2021/07/06 00:56:20;;;;;;;4.20;2.53;;;18.30;99.90;;;;;;5019482;28;20749;-60
2021/07/06 00:58:48;;;;;;;2.63;2.43;;;18.30;99.90;;;;;;5025773;28;20479;-59
2021/07/06 01:01:16;;;;;;;4.20;3.17;;;18.30;99.90;;;;;;5037933;28;20573;-60
2021/07/06 01:03:44;;;;;;;2.60;2.40;;;18.30;99.90;;;;;;5037852;28;20463;-60
2021/07/06 01:06:12;;;;;;;3.23;2.80;;;18.30;99.90;;;;;;5025513;28;20476;-57
2021/07/06 01:08:39;;;;;;;5.03;2.70;;;18.30;99.90;;;;;;5026048;28;20474;-58
2021/07/06 01:11:08;;;;;;;4.50;2.93;;;18.30;99.90;;;;;;5026779;28;20470;-59
2021/07/06 01:13:35;;;;;;;3.10;2.90;;;18.30;99.90;;;;;;5027473;28;20494;-60
2021/07/06 01:16:02;;;;;;;2.83;2.60;;;18.30;99.90;;;;;;5017523;28;20466;-60
2021/07/06 01:18:31;;;;;;;3.50;2.67;;;18.30;99.90;;;;;;5024184;28;20525;-60
2021/07/06 01:20:58;;;;;;;3.60;2.47;;;18.30;99.90;;;;;;5032088;28;20474;-60
2021/07/06 01:23:29;;;;;;;4.50;2.77;;;18.30;99.90;;;;;;5018066;28;20472;-59
2021/07/06 01:26:00;;;;;;;3.40;2.80;;;18.30;99.90;;;;;;5025922;28;20880;-60
2021/07/06 01:28:27;;;;;;;2.70;2.50;;;18.30;99.90;;;;;;5036783;28;20528;-59
2021/07/06 01:30:54;;;;;;;4.63;2.90;;;18.30;99.90;;;;;;5037323;28;20913;-58
2021/07/06 01:33:23;;;;;;;3.50;2.47;;;18.30;99.90;;;;;;5037494;28;20483;-60
2021/07/06 01:35:51;;;;;;;3.00;2.70;;;18.30;99.90;;;;;;5037323;28;20475;-60
2021/07/06 01:38:18;;;;;;;3.20;2.70;;;18.30;99.90;;;;;;5037801;28;20494;-57
2021/07/06 01:40:47;;;;;;;3.53;2.97;;;18.30;99.90;;;;;;5036540;28;20499;-60
2021/07/06 01:43:14;;;;;;;2.60;2.40;;;18.30;99.90;;;;;;5028039;28;20561;-57
2021/07/06 01:45:41;;;;;;;3.10;2.90;;;18.30;99.90;;;;;;5018789;28;20504;-59
2021/07/06 01:48:09;;;;;;;3.53;2.67;;;18.30;99.90;;;;;;5018725;28;20521;-57
2021/07/06 01:50:38;;;;;;;3.07;2.87;;;18.30;99.90;;;;;;5017877;28;20449;-60
2021/07/06 01:53:07;;;;;;;2.80;2.60;;;18.30;99.90;;;;;;5033632;28;20475;-60
2021/07/06 01:55:38;;;;;;;2.80;2.60;;;18.30;99.90;;;;;;5037489;28;20438;-60
2021/07/06 01:58:08;;;;;;;3.60;2.63;;;18.30;99.90;;;;;;5033010;28;20526;-60
2021/07/06 02:00:38;;;;;;;3.63;2.87;;;18.30;99.90;;;;;;5017972;28;20475;-60
2021/07/06 02:03:07;;;;;;;5.57;2.63;;;18.30;99.90;;;;;;5017473;28;20552;-59
2021/07/06 02:05:37;;;;;;;2.87;2.67;;;18.30;99.90;;;;;;5023267;28;20495;-59
2021/07/06 02:08:06;;;;;;;3.40;2.67;;;18.30;99.90;;;;;;5031111;28;20474;-60
2021/07/06 02:10:33;;;;;;;3.87;2.90;;;18.30;99.90;;;;;;5024532;28;20463;-59
2021/07/06 02:13:03;;;;;;;4.10;2.67;;;18.30;99.90;;;;;;5022797;28;20895;-58
2021/07/06 02:15:32;;;;;;;4.67;3.50;;;18.30;99.90;;;;;;5036586;28;20517;-57
2021/07/06 02:17:59;;;;;;;3.67;3.10;;;18.30;99.90;;;;;;5023860;28;20464;-58
2021/07/06 02:20:26;;;;;;;2.73;2.53;;;18.30;99.90;;;;;;5017490;28;20475;-58
2021/07/06 02:22:54;;;;;;;5.17;3.03;;;18.30;99.90;;;;;;5026382;28;20460;-59
2021/07/06 02:25:22;;;;;;;6.77;2.70;;;18.30;99.90;;;;;;5035217;28;20505;-59
2021/07/06 02:27:50;;;;;;;3.23;2.93;;;18.40;99.90;;;;;;5036778;28;20540;-57
2021/07/06 02:30:20;;;;;;;3.40;2.90;;;18.40;99.90;;;;;;5024116;28;20512;-59
2021/07/06 02:32:50;;;;;;;2.87;2.67;;;18.30;99.90;;;;;;5024828;28;20479;-58
2021/07/06 02:35:18;;;;;;;4.50;3.20;;;18.30;99.90;;;;;;5021174;28;20752;-55
2021/07/06 02:37:45;;;;;;;3.60;2.67;;;18.30;99.90;;;;;;5019891;28;20471;-59
2021/07/06 02:40:15;;;;;;;2.50;2.30;;;18.30;99.90;;;;;;5031554;28;20513;-58
2021/07/06 02:42:43;;;;;;;3.73;2.83;;;18.30;99.90;;;;;;5035512;28;20474;-59
2021/07/06 02:45:12;;;;;;;3.30;2.73;;;18.30;99.90;;;;;;5019320;28;20503;-58
2021/07/06 02:47:39;;;;;;;3.90;2.30;;;18.20;99.90;;;;;;5017634;28;20468;-56
2021/07/06 02:50:09;;;;;;;3.53;2.47;;;18.20;99.90;;;;;;5016899;28;20471;-60
2021/07/06 02:52:37;;;;;;;2.57;2.37;;;18.30;99.90;;;;;;5017009;28;20467;-56
2021/07/06 02:55:05;;;;;;;3.67;3.20;;;18.40;99.90;;;;;;5021202;28;20526;-58
2021/07/06 02:57:35;;;;;;;4.27;3.40;;;18.40;99.90;;;;;;5021486;28;20595;-53
2021/07/06 03:00:08;;;;;;;2.83;2.53;;;18.40;99.90;;;;;;5029704;28;20482;-55
2021/07/06 03:02:36;;;;;;;2.23;2.03;;;18.40;99.90;;;;;;5021239;28;20537;-54
2021/07/06 03:05:03;;;;;;;2.60;2.40;;;18.40;99.90;;;;;;5019353;28;20511;-57
2021/07/06 03:07:32;;;;;;;2.47;2.27;;;18.40;99.90;;;;;;5020619;28;20541;-53
2021/07/06 03:10:01;;;;;;;3.00;2.57;;;18.40;99.90;;;;;;5021093;28;20468;-53
2021/07/06 03:12:28;;;;;;;3.80;2.60;;;18.40;99.90;;;;;;5021003;28;20471;-51
2021/07/06 03:14:56;;;;;;;3.00;2.20;;;18.40;99.90;;;;;;5020734;28;20868;-55
2021/07/06 03:17:23;;;;;;;2.97;2.40;;;18.40;99.90;;;;;;5020288;28;20468;-55
2021/07/06 03:19:53;;;;;;;2.63;2.43;;;18.50;99.90;;;;;;5033981;28;20482;-57
2021/07/06 03:22:20;;;;;;;3.50;2.67;;;18.50;99.90;;;;;;5037391;28;20911;-57
2021/07/06 03:24:48;;;;;;;3.73;2.40;;;18.50;99.90;;;;;;5020409;28;20499;-58
2021/07/06 03:27:15;;;;;;;2.93;2.60;;;18.50;99.90;;;;;;5037031;28;20541;-55
2021/07/06 03:29:42;;;;;;;4.00;2.60;;;18.50;99.90;;;;;;5039981;28;20478;-52
2021/07/06 03:32:10;;;;;;;3.43;2.77;;;18.60;99.90;;;;;;5040690;28;20467;-57
2021/07/06 03:34:37;;;;;;;4.00;2.50;;;18.60;99.90;;;;;;5039721;28;20739;-51
2021/07/06 03:37:08;;;;;;;2.47;2.27;;;18.60;99.90;;;;;;5039698;28;20466;-55
2021/07/06 03:39:36;;;;;;;3.20;2.27;;;18.60;99.90;;;;;;5037555;28;20578;-56
2021/07/06 03:42:05;;;;;;;2.50;2.30;;;18.50;99.90;;;;;;5020398;28;20937;-57
2021/07/06 03:44:33;;;;;;;3.53;2.97;;;18.50;99.90;;;;;;5020796;28;20525;-55
2021/07/06 03:47:00;;;;;;;3.10;2.50;;;18.50;99.90;;;;;;5020744;28;20469;-54
2021/07/06 03:49:27;;;;;;;3.47;2.80;;;18.60;99.90;;;;;;5020218;28;20522;-58
2021/07/06 03:51:55;;;;;;;2.50;2.30;;;18.60;99.90;;;;;;5020510;28;20468;-53
2021/07/06 03:54:22;;;;;;;3.27;2.83;;;18.60;99.90;;;;;;5020376;28;20451;-51
2021/07/06 03:56:49;;;;;;;3.10;2.57;;;18.60;99.90;;;;;;5028457;28;20442;-55
2021/07/06 03:59:17;;;;;;;3.43;2.57;;;18.70;99.90;;;;;;5019961;28;20472;-56
2021/07/06 04:01:44;;;;;;;2.60;2.40;;;18.70;99.90;;;;;;5036939;28;20478;-54
2021/07/06 04:04:11;;;;;;;3.40;2.23;;;18.70;99.90;;;;;;5027060;28;20475;-56
2021/07/06 04:06:38;;;;;;;2.63;2.43;;;18.80;99.90;;;;;;5029367;28;20494;-58
2021/07/06 04:09:05;;;;;;;3.20;2.90;;;18.80;99.90;;;;;;5027883;28;20460;-58
2021/07/06 04:11:32;;;;;;;3.53;3.20;;;18.80;99.90;;;;;;5020426;28;20522;-52
2021/07/06 04:13:59;;;;;;;3.00;2.43;;;18.70;99.90;;;;;;5024374;28;20467;-51
2021/07/06 04:16:28;;;;;;;3.07;2.83;;;18.70;99.90;;;;;;5038446;28;20525;-54
2021/07/06 04:18:57;;;;;;;3.43;2.80;;;18.80;99.90;;;;;;5038277;28;20471;-56
2021/07/06 04:21:25;;;;;;;2.50;2.40;;;18.80;99.90;;;;;;5038402;28;20473;-56
2021/07/06 04:23:52;;;;;;;2.70;2.50;;;18.80;99.90;;;;;;5028568;28;20472;-53
2021/07/06 04:26:19;;;;;;;7.50;2.90;;;18.70;99.90;;;;;;5020213;28;20796;-54
2021/07/06 04:28:46;;;;;;;3.00;2.80;;;18.70;99.90;;;;;;5020134;28;20474;-57
2021/07/06 04:31:13;;;;;;;3.93;2.77;;;18.80;99.90;;;;;;5019531;28;20472;-57
2021/07/06 05:21:39;;;;;;;3.50;2.90;;;18.40;99.90;;;;;;5079037;23;20492;-63
2021/07/06 05:24:06;;;;;;;8.83;3.40;;;18.30;99.90;;;;;;5019001;28;20794;-64
2021/07/06 05:26:37;;;;;;;4.20;3.20;;;18.30;99.90;;;;;;5018217;28;20507;-63
2021/07/06 05:29:05;;;;;;;4.27;3.57;;;18.30;99.90;;;;;;5027613;28;20880;-63
2021/07/06 05:31:35;;;;;;;6.30;3.30;;;18.30;99.90;;;;;;5019055;28;21010;-63
2021/07/06 05:34:03;;;;;;;3.57;3.27;;;18.20;99.90;;;;;;5013343;28;20478;-63
2021/07/06 05:36:30;;;;;;;5.13;3.43;;;18.20;99.90;;;;;;5035860;28;20895;-63
2021/07/06 05:38:59;;;;;;;6.50;3.30;;;18.20;99.90;;;;;;5032218;28;20491;-63
2021/07/06 05:41:26;;;;;;;3.90;3.50;;;18.20;99.90;;;;;;5000468;28;20467;-63
2021/07/06 05:43:54;;;;;;;3.80;3.20;;;18.20;99.90;;;;;;5018170;28;20472;-63
2021/07/06 05:46:26;;;;;;;4.13;3.73;;;18.20;99.90;;;;;;5017694;28;20499;-62
2021/07/06 05:48:53;;;;;;;7.73;3.40;;;18.20;99.90;;;;;;5000514;28;20586;-59
2021/07/06 05:51:20;;;;;;;7.33;3.50;;;18.20;99.90;;;;;;5018298;28;20472;-60
2021/07/06 05:53:49;;;;;;;4.83;3.33;;;18.10;99.90;;;;;;5018005;28;20527;-61
2021/07/06 05:56:19;;;;;;;6.37;4.00;;;18.10;99.90;;;;;;5018267;28;20899;-59
2021/07/06 05:58:48;;;;;;;4.70;3.63;;;18.10;99.90;;;;;;5000755;28;20464;-61
2021/07/06 06:01:15;;;;;;;7.63;3.60;;;18.10;99.90;;;;;;5033852;28;20519;-60
2021/07/06 06:03:47;;;;;;;5.33;4.13;;;18.00;99.90;;;;;;5023610;28;20571;-62
2021/07/06 06:06:17;;;;;;;4.47;4.07;;;18.00;99.90;;;;;;5020757;28;20935;-61
2021/07/06 06:08:44;;;;;;;7.27;3.80;;;17.90;99.90;;;;;;5035867;28;20463;-62
2021/07/06 06:11:14;;;;;;;7.20;4.17;;;17.80;99.90;;;;;;5037005;28;20509;-62
2021/07/06 06:13:42;;;;;;;6.00;3.83;;;17.80;99.90;;;;;;5007560;28;20567;-63
2021/07/06 06:16:12;;;;;;;5.70;3.80;;;17.80;99.90;;;;;;5030611;28;20463;-63
2021/07/06 06:18:40;;;;;;;3.90;3.60;;;17.80;99.90;;;;;;5030544;28;20519;-63
2021/07/06 06:21:07;;;;;;;4.27;3.67;;;17.70;99.90;;;;;;5017688;28;20470;-62
2021/07/06 06:23:34;;;;;;;8.20;3.47;;;17.70;99.90;;;;;;5018087;28;20896;-62
2021/07/06 06:26:01;;;;;;;5.10;3.97;;;17.70;99.90;;;;;;4999923;28;20799;-62
2021/07/06 06:28:29;;;;;;;5.23;4.73;;;17.70;99.90;;;;;;5016870;28;20475;-64
2021/07/06 06:30:57;;;;;;;6.67;4.67;;;17.70;99.90;;;;;;5026643;28;20783;-63
2021/07/06 06:33:28;;;;;;;4.90;4.30;;;17.70;99.90;;;;;;5035098;28;20475;-64
2021/07/06 06:35:55;;;;;;;5.13;4.47;;;17.70;99.90;;;;;;5030736;28;20778;-64
2021/07/06 06:38:23;;;;;;;4.57;4.00;;;17.70;99.90;;;;;;5018572;28;20771;-63
2021/07/06 06:40:50;;;;;;;5.80;4.50;;;17.70;99.90;;;;;;5036499;28;20807;-64
2021/07/06 06:43:18;;;;;;;3.60;3.30;;;17.70;99.90;;;;;;5036831;28;20537;-64
2021/07/06 06:45:46;;;;;;;4.23;3.50;;;17.70;99.90;;;;;;5018785;28;20541;-63
2021/07/06 06:48:21;;;;;;;3.83;3.53;;;17.70;99.90;;;;;;5036406;28;20548;-65
2021/07/06 06:50:48;;;;;;;3.70;3.40;;;17.80;99.90;;;;;;5036274;28;20462;-64
2021/07/06 06:53:20;;;;;;;4.40;3.73;;;17.80;99.90;;;;;;5036918;28;20463;-64
2021/07/06 06:55:47;;;;;;;3.70;3.23;;;17.70;99.90;;;;;;5036388;28;20467;-64
2021/07/06 06:58:17;;;;;;;9.63;3.80;;;17.70;99.90;;;;;;5027460;28;20534;-65
2021/07/06 07:00:44;;;;;;;3.97;3.60;;;17.70;99.90;;;;;;5034991;28;20467;-65
2021/07/06 07:03:12;;;;;;;4.93;4.47;;;17.70;99.90;;;;;;5027508;28;20478;-65
2021/07/06 07:05:40;;;;;;;4.37;4.07;;;17.70;99.90;;;;;;5014625;28;20492;-65
2021/07/06 07:08:09;;;;;;;5.27;3.60;;;17.70;99.90;;;;;;5017137;28;20463;-64
2021/07/06 07:10:37;;;;;;;6.90;3.60;;;17.70;99.90;;;;;;5017128;28;20468;-66
2021/07/06 07:13:04;;;;;;;4.20;3.50;;;17.70;99.90;;;;;;5022734;28;20446;-66
2021/07/06 07:15:36;;;;;;;4.63;4.20;;;17.60;99.90;;;;;;5036184;28;20572;-65
2021/07/06 07:18:03;;;;;;;5.50;3.60;;;17.60;99.90;;;;;;5036454;28;20474;-65
2021/07/06 07:20:33;;;;;;;8.50;4.03;;;17.60;99.90;;;;;;5035118;28;20993;-64
2021/07/06 07:23:02;;;;;;;4.23;3.50;;;17.60;99.90;;;;;;5035254;28;20470;-65
2021/07/06 07:25:32;;;;;;;4.77;3.83;;;17.60;99.90;;;;;;5035200;28;20469;-66
2021/07/06 07:27:59;;;;;;;3.60;3.30;;;17.50;99.90;;;;;;5036203;28;20471;-64
2021/07/06 07:30:26;;;;;;;4.00;3.60;;;17.60;99.90;;;;;;5011363;28;20871;-64
2021/07/06 07:32:54;;;;;;;4.60;4.20;;;17.60;99.90;;;;;;5018214;28;20481;-62
2021/07/06 07:35:21;;;;;;;4.13;3.83;;;17.60;99.90;;;;;;5035752;28;20478;-64
2021/07/06 07:37:49;;;;;;;9.53;4.33;;;17.70;99.90;;;;;;5017666;28;20460;-63
2021/07/06 07:40:19;;;;;;;4.37;4.00;;;17.70;99.90;;;;;;5018493;28;20468;-64
2021/07/06 07:42:50;;;;;;;7.33;3.60;;;17.80;99.90;;;;;;5020430;28;20454;-64
2021/07/06 07:45:17;;;;;;;4.70;4.30;;;17.80;99.90;;;;;;5020086;28;20472;-63
2021/07/06 07:47:44;;;;;;;3.73;3.40;;;17.90;99.90;;;;;;5020601;28;20510;-64
2021/07/06 07:50:13;;;;;;;5.20;3.20;;;17.90;99.90;;;;;;5002851;28;20880;-66
2021/07/06 07:52:40;;;;;;;3.67;3.37;;;18.00;99.90;;;;;;5030934;28;20478;-66
2021/07/06 07:55:11;;;;;;;3.83;3.23;;;18.10;99.90;;;;;;5039619;28;20471;-65
2021/07/06 07:57:42;;;;;;;4.10;3.70;;;18.10;99.90;;;;;;5026592;28;20464;-66
2021/07/06 08:00:15;;;;;;;8.00;3.83;;;18.10;99.90;;;;;;5031867;28;20471;-65
2021/07/06 08:02:43;;;;;;;3.87;3.30;;;18.20;99.90;;;;;;5034775;28;20823;-66
2021/07/06 08:05:11;;;;;;;4.43;3.30;;;18.20;99.90;;;;;;5016736;28;20764;-66
2021/07/06 08:07:38;;;;;;;3.53;3.23;;;18.20;99.90;;;;;;5018849;28;20500;-65
2021/07/06 08:10:06;;;;;;;3.40;3.10;;;18.20;99.90;;;;;;5019495;28;20472;-66
2021/07/06 08:12:34;;;;;;;3.83;3.53;;;18.20;99.90;;;;;;5019623;28;20466;-66
2021/07/06 08:15:03;;;;;;;3.07;2.87;;;18.20;99.90;;;;;;5019450;28;20955;-66
2021/07/06 08:17:30;;;;;;;4.20;3.53;;;18.20;99.90;;;;;;5022155;28;20522;-65
2021/07/06 08:20:00;;;;;;;3.40;3.20;;;18.20;99.90;;;;;;5038935;28;20935;-65
2021/07/06 08:22:28;;;;;;;3.57;3.20;;;18.10;99.90;;;;;;5033555;28;20463;-67
2021/07/06 08:24:56;;;;;;;5.43;3.53;;;18.10;99.90;;;;;;5038754;28;20471;-65
2021/07/06 08:27:26;;;;;;;3.80;3.50;;;18.20;99.90;;;;;;5038944;28;20914;-66
2021/07/06 08:29:54;;;;;;;3.30;3.00;;;18.10;99.90;;;;;;5013396;28;20470;-65
2021/07/06 08:32:23;;;;;;;3.53;3.23;;;18.10;99.90;;;;;;5038572;28;20471;-65
2021/07/06 08:34:53;;;;;;;3.40;3.10;;;18.20;99.90;;;;;;5038788;28;20470;-66
2021/07/06 08:37:21;;;;;;;10.23;3.90;;;18.20;99.90;;;;;;5020285;28;20466;-66
2021/07/06 08:39:48;;;;;;;3.33;3.03;;;18.40;99.90;;;;;;5010849;28;20823;-66
2021/07/06 08:42:16;;;;;;;5.23;3.27;;;18.40;99.90;;;;;;5034554;28;20476;-65
2021/07/06 08:44:43;;;;;;;4.63;3.40;;;18.60;99.90;;;;;;5034871;28;20902;-65
2021/07/06 08:47:14;;;;;;;3.33;2.77;;;18.70;99.90;;;;;;5019708;28;20502;-66
2021/07/06 08:49:47;;;;;;;4.53;2.80;;;18.70;99.90;;;;;;5019694;28;20562;-66
2021/07/06 08:52:15;;;;;;;5.20;2.87;;;18.70;99.90;;;;;;5018761;28;20915;-65
2021/07/06 08:54:43;;;;;;;4.73;3.47;;;18.90;99.90;;;;;;5022108;28;20484;-65
2021/07/06 08:57:11;;;;;;;4.37;2.90;;;19.00;99.90;;;;;;5020608;28;20869;-65
2021/07/06 08:59:41;;;;;;;3.87;2.77;;;18.90;99.90;;;;;;5036893;28;20471;-65
2021/07/06 09:02:16;;;;;;;3.40;3.10;;;18.90;99.90;;;;;;5037834;28;20995;-64
2021/07/06 09:04:46;;;;;;;3.60;3.23;;;18.90;99.90;;;;;;5021417;28;20474;-67
2021/07/06 09:07:17;;;;;;;5.67;3.20;;;18.80;99.90;;;;;;5016421;28;20499;-67
2021/07/06 09:09:45;;;;;;;3.83;3.50;;;18.80;99.90;;;;;;5020327;28;20907;-65
2021/07/06 09:12:14;;;;;;;3.60;3.20;;;18.90;99.90;;;;;;5024331;28;20467;-64
2021/07/06 09:14:48;;;;;;;5.53;3.00;;;19.00;99.90;;;;;;5037905;28;20463;-65
2021/07/06 09:17:18;;;;;;;4.60;3.13;;;19.00;99.90;;;;;;5024683;28;20463;-64
2021/07/06 09:19:51;;;;;;;3.73;3.17;;;19.00;99.90;;;;;;5031148;28;20508;-63
2021/07/06 09:22:19;;;;;;;3.67;3.33;;;19.10;99.90;;;;;;5037234;28;20941;-64
2021/07/06 09:24:59;;;;;;;5.53;3.17;;;19.20;99.90;;;;;;5030784;28;20464;-66
2021/07/06 09:27:28;;;;;;;3.37;3.10;;;19.20;99.90;;;;;;5038104;28;20498;-66
2021/07/06 09:30:12;;;;;;;4.40;4.00;;;19.30;99.90;;;;;;5037153;28;20571;-63
2021/07/06 09:32:45;;;;;;;3.00;2.70;;;19.40;99.90;;;;;;5035425;28;20472;-63
2021/07/06 09:35:17;;;;;;;3.50;3.20;;;19.40;99.90;;;;;;5033752;28;20957;-63
2021/07/06 09:37:51;;;;;;;3.47;2.60;;;19.60;99.90;;;;;;5037845;28;20473;-64
2021/07/06 09:40:30;;;;;;;4.37;3.13;;;19.60;99.90;;;;;;5037088;28;20464;-65
2021/07/06 09:43:23;;;;;;;4.30;3.10;;;19.70;99.90;;;;;;5025623;28;20533;-65
2021/07/06 09:46:04;;;;;;;4.07;2.80;;;19.60;99.90;;;;;;5027793;28;20464;-63
2021/07/06 09:48:33;;;;;;;4.00;2.80;;;19.50;99.90;;;;;;5000589;28;20804;-65
2021/07/06 09:51:23;;;;;;;2.73;2.53;;;19.50;99.90;;;;;;5022227;28;20485;-63
2021/07/06 09:53:52;;;;;;;4.20;3.50;;;19.50;99.90;;;;;;5021018;28;20844;-64
2021/07/06 09:56:22;;;;;;;3.20;2.83;;;19.70;99.90;;;;;;5019640;28;20468;-65
2021/07/06 09:58:57;;;;;;;3.53;2.90;;;19.90;99.90;;;;;;5018601;28;20936;-64
2021/07/06 10:01:25;;;;;;;3.50;2.80;;;20.00;99.90;;;;;;5028218;28;20471;-64
2021/07/06 10:03:54;;;;;;;2.87;2.60;;;19.90;99.90;;;;;;5018211;28;20476;-65
2021/07/06 10:06:27;;;;;;;3.77;2.73;;;20.00;99.90;;;;;;5016803;28;20825;-64
2021/07/06 10:08:55;;;;;;;3.00;2.80;;;19.90;99.90;;;;;;5017343;28;20464;-64
2021/07/06 10:11:23;;;;;;;4.10;2.50;;;19.80;99.90;;;;;;5017271;28;20468;-64
2021/07/06 10:13:50;;;;;;;3.57;2.80;;;19.80;99.90;;;;;;5018088;28;20768;-62
2021/07/06 10:16:18;;;;;;;2.60;2.40;;;19.70;99.90;;;;;;5017342;28;20472;-65
2021/07/06 10:18:46;;;;;;;2.90;2.60;;;19.70;99.90;;;;;;5018021;28;20586;-64
2021/07/06 11:02:06;;;;;;;1.70;1.60;;;24.20;99.90;;;;;;3688392;22;20491;-63
2021/07/06 11:05:10;;;;;;;2.20;2.10;;;24.30;99.90;;;;;;5037266;28;20520;-61
2021/07/06 11:10:43;;;;;;;2.93;2.10;;;24.20;99.90;;;;;;5036889;28;20423;-60
2021/07/06 11:13:22;;;;;;;2.40;2.20;;;24.60;99.90;;;;;;5037391;28;20510;-60
2021/07/06 11:15:51;;;;;;;2.73;2.23;;;24.70;98.00;;;;;;5040932;28;20746;-59
2021/07/06 11:18:48;;;;;;;2.90;1.70;;;23.80;96.80;;;;;;5040814;28;20509;-60
2021/07/06 11:21:37;;;;;;;2.13;2.03;;;23.50;99.90;;;;;;5040905;28;20515;-60
2021/07/06 11:24:17;;;;;;;3.00;2.50;;;23.60;98.70;;;;;;5040935;28;20477;-60
2021/07/06 11:26:45;;;;;;;2.43;2.23;;;23.70;99.80;;;;;;5041003;28;20938;-59
2021/07/06 11:29:12;;;;;;;2.57;2.20;;;24.00;96.00;;;;;;5040735;28;20957;-59
2021/07/06 11:31:39;;;;;;;2.13;1.93;;;23.40;96.80;;;;;;5040320;28;20462;-59
2021/07/06 11:34:19;;;;;;;2.20;1.90;;;23.40;97.80;;;;;;5041251;28;20479;-58
2021/07/06 11:36:47;;;;;;;2.83;2.20;;;24.10;91.70;;;;;;5040273;28;20462;-57
2021/07/06 11:39:14;;;;;;;3.93;2.00;;;24.60;83.90;;;;;;5040478;28;20499;-56
2021/07/06 11:41:44;;;;;;;1.90;1.80;;;24.70;80.90;;;;;;5040778;28;20462;-51
2021/07/06 11:44:11;;;;;;;1.87;1.70;;;24.90;79.50;;;;;;5040830;28;20459;-57
2021/07/06 11:46:38;;;;;;;2.27;2.10;;;25.00;81.30;;;;;;5032228;28;20474;-57
2021/07/06 11:49:09;;;;;;;2.10;1.90;;;25.40;73.60;;;;;;5020640;28;20471;-59
2021/07/06 11:51:41;;;;;;;5.47;2.07;;;25.00;72.10;;;;;;5020820;28;20464;-53
2021/07/06 11:54:13;;;;;;;2.93;2.00;;;24.70;74.50;;;;;;5020638;28;20888;-59
2021/07/06 11:56:50;;;;;;;4.23;2.07;;;24.20;75.40;;;;;;5031905;28;20963;-58
2021/07/06 11:59:19;;;;;;;2.07;1.77;;;24.60;78.00;;;;;;5026451;28;20573;-56
2021/07/06 12:01:46;;;;;;;2.60;2.40;;;25.50;75.30;;;;;;5025830;28;20550;-55
2021/07/06 12:04:23;;;;;;;6.47;2.10;;;26.20;74.40;;;;;;5007623;28;20891;-56
2021/07/06 12:07:06;;;;;;;1.77;1.67;;;26.60;68.60;;;;;;5020828;28;20529;-58
2021/07/06 12:09:33;;;;;;;2.10;1.90;;;25.90;67.70;;;;;;5036872;28;20459;-58
2021/07/06 12:12:15;;;;;;;2.10;1.90;;;24.90;68.00;;;;;;5039584;28;20754;-54
2021/07/06 12:14:51;;;;;;;2.50;1.70;;;24.90;70.90;;;;;;5037836;28;20954;-54
2021/07/06 12:17:31;;;;;;;3.63;2.27;;;24.90;69.60;;;;;;5039602;28;20553;-57
2021/07/06 12:20:03;;;;;;;2.70;2.50;;;25.60;67.50;;;;;;5039268;28;20467;-56
2021/07/06 12:22:32;;;;;;;2.53;1.97;;;25.60;65.90;;;;;;5033602;28;20823;-58
2021/07/06 12:25:01;;;;;;;2.30;1.60;;;25.80;68.60;;;;;;5039026;28;20475;-58
2021/07/06 12:27:35;;;;;;;2.13;1.87;;;25.80;66.20;;;;;;5038014;28;20505;-58
2021/07/06 12:30:03;;;;;;;3.00;2.20;;;25.40;68.30;;;;;;5036309;28;20690;-58
2021/07/06 12:32:30;;;;;;;2.27;2.07;;;25.00;68.20;;;;;;5039199;28;21211;-58
2021/07/06 12:35:04;;;;;;;4.23;2.13;;;24.60;69.30;;;;;;5038626;28;20441;-55
2021/07/06 12:37:31;;;;;;;2.10;1.97;;;24.00;71.50;;;;;;5038962;28;20520;-52
2021/07/06 12:40:03;;;;;;;2.20;2.10;;;24.30;72.00;;;;;;5037892;28;20554;-52
2021/07/06 12:42:37;;;;;;;7.33;2.20;;;24.00;71.10;;;;;;5036081;28;20529;-58
2021/07/06 12:45:10;;;;;;;2.53;2.00;;;24.50;71.90;;;;;;5022328;28;20467;-52
2021/07/06 12:47:42;;;;;;;2.33;2.10;;;25.30;71.00;;;;;;5038735;28;20469;-49
2021/07/06 12:50:17;;;;;;;1.90;1.80;;;25.20;68.60;;;;;;5038329;28;20526;-54
2021/07/06 12:52:46;;;;;;;7.27;1.93;;;24.50;66.50;;;;;;5038607;28;20467;-56
2021/07/06 12:55:18;;;;;;;1.90;1.80;;;24.40;67.20;;;;;;5038545;28;20478;-51
2021/07/06 12:57:47;;;;;;;2.57;2.37;;;24.20;67.10;;;;;;5019238;28;20464;-54
2021/07/06 13:00:17;;;;;;;2.40;2.20;;;23.80;66.60;;;;;;5030213;28;20463;-52
2021/07/06 13:02:46;;;;;;;2.90;2.03;;;24.40;66.50;;;;;;5035694;28;20495;-55
2021/07/06 13:05:27;;;;;;;2.67;2.47;;;24.80;66.00;;;;;;5021386;28;20771;-47
2021/07/06 13:08:00;;;;;;;1.83;1.73;;;24.50;64.20;;;;;;5025569;28;20500;-48
2021/07/06 13:10:31;;;;;;;2.47;2.00;;;24.40;64.90;;;;;;5018304;28;20443;-52
2021/07/06 13:13:06;;;;;;;2.53;2.20;;;24.90;66.20;;;;;;5019243;28;20471;-52
2021/07/06 13:15:35;;;;;;;2.77;2.13;;;25.30;63.50;;;;;;5019368;28;20471;-49
2021/07/06 13:18:02;;;;;;;2.50;2.10;;;26.00;64.60;;;;;;5025561;28;20470;-52
2021/07/06 13:20:33;;;;;;;2.00;1.90;;;25.90;60.70;;;;;;5025320;28;20761;-46
2021/07/06 13:23:09;;;;;;;2.37;2.17;;;25.60;59.80;;;;;;5025105;28;20767;-51
2021/07/06 13:25:37;;;;;;;3.50;2.53;;;25.40;59.70;;;;;;5018908;28;20470;-52
2021/07/06 13:28:07;;;;;;;4.20;2.47;;;25.70;59.20;;;;;;5018781;28;20499;-53
2021/07/06 13:30:36;;;;;;;3.00;1.90;;;25.40;59.80;;;;;;5035288;28;20471;-51
2021/07/06 13:33:13;;;;;;;2.10;2.00;;;25.80;59.50;;;;;;5025092;28;20461;-51
2021/07/06 13:35:42;;;;;;;3.83;2.27;;;26.40;60.20;;;;;;5018889;28;20467;-53
2021/07/06 13:38:09;;;;;;;2.13;1.93;;;26.60;56.70;;;;;;5018826;28;20456;-50
2021/07/06 13:40:37;;;;;;;4.00;2.43;;;26.60;56.20;;;;;;5030979;28;20445;-51
2021/07/06 13:43:04;;;;;;;5.60;2.13;;;26.50;57.60;;;;;;5032783;28;20470;-52
2021/07/06 13:45:34;;;;;;;3.07;2.43;;;25.60;57.80;;;;;;5037215;28;20463;-50
2021/07/06 13:48:04;;;;;;;3.87;2.27;;;25.40;57.60;;;;;;5030965;28;20953;-50
2021/07/06 13:50:34;;;;;;;2.20;1.93;;;25.00;58.80;;;;;;5018493;28;20769;-51
2021/07/06 13:53:06;;;;;;;2.30;2.10;;;25.40;59.20;;;;;;5030968;28;20475;-54
2021/07/06 13:55:37;;;;;;;7.30;6.57;;;25.10;58.90;;;;;;5023506;28;20778;-46
2021/07/06 13:58:05;;;;;;;3.43;2.20;;;25.60;59.80;;;;;;5018805;28;20467;-46
2021/07/06 14:00:33;;;;;;;4.23;1.73;;;25.90;57.40;;;;;;5017985;28;20865;-51
2021/07/06 14:03:04;;;;;;;2.50;2.30;;;25.20;57.10;;;;;;5015413;28;20515;-47
2021/07/06 14:05:37;;;;;;;4.83;2.40;;;24.40;59.30;;;;;;5023463;28;20471;-51
2021/07/06 14:08:12;;;;;;;2.90;2.60;;;24.10;59.70;;;;;;5018210;28;20498;-46
2021/07/06 14:10:40;;;;;;;4.47;3.50;;;24.30;61.20;;;;;;5030732;28;20463;-47
2021/07/06 14:13:09;;;;;;;2.63;2.43;;;24.60;61.60;;;;;;5017709;28;20900;-46
2021/07/06 14:15:41;;;;;;;2.10;1.87;;;25.40;59.60;;;;;;5027379;28;20802;-47
2021/07/06 14:18:10;;;;;;;4.00;2.23;;;25.20;57.50;;;;;;5026566;28;20519;-48
2021/07/06 14:20:37;;;;;;;2.50;2.30;;;25.10;56.80;;;;;;5018001;28;20526;-45
2021/07/06 14:23:09;;;;;;;5.03;2.43;;;24.70;56.20;;;;;;5028792;28;20459;-47
2021/07/06 14:25:42;;;;;;;8.13;2.20;;;24.50;56.50;;;;;;5030647;28;20471;-45
2021/07/06 14:28:09;;;;;;;3.97;2.70;;;24.10;55.60;;;;;;5037346;28;20560;-45
2021/07/06 14:30:39;;;;;;;2.73;2.40;;;23.90;57.00;;;;;;5039705;28;20475;-53
2021/07/06 14:33:06;;;;;;;2.40;2.20;;;23.80;57.80;;;;;;5036705;28;20467;-46